sensor_id;sensor_type;location;lat;lon;timestamp;temperature;humidity
11744;DHT22;5929;51.906;7.674;2023-04-10T00:01:28;5.60;99.90
11744;DHT22;5929;51.906;7.674;2023-04-10T00:04:00;5.60;99.90
11744;DHT22;5929;51.906;7.674;2023-04-10T00:06:28;5.60;99.90
11744;DHT22;5929;51.906;7.674;2023-04-10T00:08:56;5.60;99.90
11744;DHT22;5929;51.906;7.674;2023-04-10T00:11:23;5.60;99.90
11744;DHT22;5929;51.906;7.674;2023-04-10T00:13:51;5.70;99.90
11744;DHT22;5929;51.906;7.674;2023-04-10T00:16:18;5.60;99.90
11744;DHT22;5929;51.906;7.674;2023-04-10T00:18:45;5.60;99.90
11744;DHT22;5929;51.906;7.674;2023-04-10T00:21:12;5.50;99.90
11744;DHT22;5929;51.906;7.674;2023-04-10T00:23:40;5.50;99.90
11744;DHT22;5929;51.906;7.674;2023-04-10T00:26:07;5.40;99.90
11744;DHT22;5929;51.906;7.674;2023-04-10T00:28:35;5.40;99.90
11744;DHT22;5929;51.906;7.674;2023-04-10T00:31:02;5.30;99.90
11744;DHT22;5929;51.906;7.674;2023-04-10T00:33:29;5.30;99.90
11744;DHT22;5929;51.906;7.674;2023-04-10T00:35:56;5.20;99.90
11744;DHT22;5929;51.906;7.674;2023-04-10T00:38:23;5.20;99.90
11744;DHT22;5929;51.906;7.674;2023-04-10T00:40:52;5.10;99.90
11744;DHT22;5929;51.906;7.674;2023-04-10T00:43:21;5.10;99.90
11744;DHT22;5929;51.906;7.674;2023-04-10T00:45:48;5.20;99.90
11744;DHT22;5929;51.906;7.674;2023-04-10T00:48:15;5.30;99.90
11744;DHT22;5929;51.906;7.674;2023-04-10T00:50:42;5.30;99.90
11744;DHT22;5929;51.906;7.674;2023-04-10T00:53:11;5.40;99.90
11744;DHT22;5929;51.906;7.674;2023-04-10T00:55:38;5.40;99.90
11744;DHT22;5929;51.906;7.674;2023-04-10T00:58:06;5.50;99.90
11744;DHT22;5929;51.906;7.674;2023-04-10T01:00:33;5.50;99.90
11744;DHT22;5929;51.906;7.674;2023-04-10T01:03:00;5.50;99.90
11744;DHT22;5929;51.906;7.674;2023-04-10T01:05:32;5.60;99.90
11744;DHT22;5929;51.906;7.674;2023-04-10T01:08:07;5.60;99.90
11744;DHT22;5929;51.906;7.674;2023-04-10T01:10:45;5.70;99.90
11744;DHT22;5929;51.906;7.674;2023-04-10T01:13:23;5.70;99.90
11744;DHT22;5929;51.906;7.674;2023-04-10T01:15:57;5.70;99.90
11744;DHT22;5929;51.906;7.674;2023-04-10T01:18:28;5.70;99.90
11744;DHT22;5929;51.906;7.674;2023-04-10T01:20:58;5.80;99.90
11744;DHT22;5929;51.906;7.674;2023-04-10T01:26:46;5.90;99.90
11744;DHT22;5929;51.906;7.674;2023-04-10T01:29:19;5.90;99.90
11744;DHT22;5929;51.906;7.674;2023-04-10T01:31:51;5.90;99.90
11744;DHT22;5929;51.906;7.674;2023-04-10T01:34:22;5.90;99.90
11744;DHT22;5929;51.906;7.674;2023-04-10T01:36:54;5.80;99.90
11744;DHT22;5929;51.906;7.674;2023-04-10T01:39:21;5.80;99.90
11744;DHT22;5929;51.906;7.674;2023-04-10T01:41:51;5.70;99.90
11744;DHT22;5929;51.906;7.674;2023-04-10T01:44:22;5.70;99.90
11744;DHT22;5929;51.906;7.674;2023-04-10T01:46:51;5.70;99.90
11744;DHT22;5929;51.906;7.674;2023-04-10T01:49:19;5.70;99.90
11744;DHT22;5929;51.906;7.674;2023-04-10T01:51:49;5.80;99.90
11744;DHT22;5929;51.906;7.674;2023-04-10T01:54:16;5.70;99.90
11744;DHT22;5929;51.906;7.674;2023-04-10T01:56:43;5.70;99.90
11744;DHT22;5929;51.906;7.674;2023-04-10T01:59:10;5.70;99.90
11744;DHT22;5929;51.906;7.674;2023-04-10T02:01:39;5.70;99.90
11744;DHT22;5929;51.906;7.674;2023-04-10T02:04:06;5.70;99.90
11744;DHT22;5929;51.906;7.674;2023-04-10T02:06:40;5.70;99.90
11744;DHT22;5929;51.906;7.674;2023-04-10T02:09:14;5.70;99.90
11744;DHT22;5929;51.906;7.674;2023-04-10T02:11:47;5.70;99.90
11744;DHT22;5929;51.906;7.674;2023-04-10T02:14:17;5.70;99.90
11744;DHT22;5929;51.906;7.674;2023-04-10T02:16:48;5.80;99.90
11744;DHT22;5929;51.906;7.674;2023-04-10T02:19:18;5.70;99.90
11744;DHT22;5929;51.906;7.674;2023-04-10T02:21:46;5.70;99.90
11744;DHT22;5929;51.906;7.674;2023-04-10T02:24:13;5.80;99.90
11744;DHT22;5929;51.906;7.674;2023-04-10T02:26:44;5.70;99.90
11744;DHT22;5929;51.906;7.674;2023-04-10T02:29:11;5.70;99.90
11744;DHT22;5929;51.906;7.674;2023-04-10T02:31:38;5.80;99.90
11744;DHT22;5929;51.906;7.674;2023-04-10T02:34:06;5.80;99.90
11744;DHT22;5929;51.906;7.674;2023-04-10T02:36:34;5.80;99.90
11744;DHT22;5929;51.906;7.674;2023-04-10T02:39:00;5.80;99.90
11744;DHT22;5929;51.906;7.674;2023-04-10T02:41:28;5.80;99.90
11744;DHT22;5929;51.906;7.674;2023-04-10T02:43:55;5.80;99.90
11744;DHT22;5929;51.906;7.674;2023-04-10T02:46:22;5.80;99.90
11744;DHT22;5929;51.906;7.674;2023-04-10T02:48:50;5.80;99.90
11744;DHT22;5929;51.906;7.674;2023-04-10T02:51:18;5.80;99.90
11744;DHT22;5929;51.906;7.674;2023-04-10T02:53:46;5.80;99.90
11744;DHT22;5929;51.906;7.674;2023-04-10T02:56:13;5.80;99.90
11744;DHT22;5929;51.906;7.674;2023-04-10T02:58:42;5.90;99.90
11744;DHT22;5929;51.906;7.674;2023-04-10T03:01:10;5.90;99.90
11744;DHT22;5929;51.906;7.674;2023-04-10T03:03:37;5.90;99.90
11744;DHT22;5929;51.906;7.674;2023-04-10T03:06:05;5.90;99.90
11744;DHT22;5929;51.906;7.674;2023-04-10T03:08:33;5.90;99.90
11744;DHT22;5929;51.906;7.674;2023-04-10T03:11:00;5.90;99.90
11744;DHT22;5929;51.906;7.674;2023-04-10T03:13:27;5.90;99.90
11744;DHT22;5929;51.906;7.674;2023-04-10T03:15:53;5.90;99.90
11744;DHT22;5929;51.906;7.674;2023-04-10T03:18:21;5.90;99.90
11744;DHT22;5929;51.906;7.674;2023-04-10T03:20:48;5.90;99.90
11744;DHT22;5929;51.906;7.674;2023-04-10T03:23:15;6.00;99.90
11744;DHT22;5929;51.906;7.674;2023-04-10T03:25:43;6.10;99.90
11744;DHT22;5929;51.906;7.674;2023-04-10T03:28:10;6.10;99.90
11744;DHT22;5929;51.906;7.674;2023-04-10T03:30:37;6.10;99.90
11744;DHT22;5929;51.906;7.674;2023-04-10T03:33:03;6.10;99.90
11744;DHT22;5929;51.906;7.674;2023-04-10T03:35:30;6.10;99.90
11744;DHT22;5929;51.906;7.674;2023-04-10T03:37:57;6.00;99.90
11744;DHT22;5929;51.906;7.674;2023-04-10T03:40:24;6.10;99.90
11744;DHT22;5929;51.906;7.674;2023-04-10T03:42:52;6.00;99.90
11744;DHT22;5929;51.906;7.674;2023-04-10T03:45:19;6.00;99.90
11744;DHT22;5929;51.906;7.674;2023-04-10T03:47:46;6.00;99.90
11744;DHT22;5929;51.906;7.674;2023-04-10T03:50:12;6.00;99.90
11744;DHT22;5929;51.906;7.674;2023-04-10T03:52:39;6.00;99.90
11744;DHT22;5929;51.906;7.674;2023-04-10T03:55:07;6.00;99.90
11744;DHT22;5929;51.906;7.674;2023-04-10T03:57:36;6.00;99.90
11744;DHT22;5929;51.906;7.674;2023-04-10T04:00:05;6.00;99.90
11744;DHT22;5929;51.906;7.674;2023-04-10T04:02:35;6.00;99.90
11744;DHT22;5929;51.906;7.674;2023-04-10T04:05:02;6.00;99.90
11744;DHT22;5929;51.906;7.674;2023-04-10T04:07:29;5.90;99.90
11744;DHT22;5929;51.906;7.674;2023-04-10T04:09:56;5.90;99.90
11744;DHT22;5929;51.906;7.674;2023-04-10T04:12:23;5.90;99.90
11744;DHT22;5929;51.906;7.674;2023-04-10T04:14:50;5.90;99.90
11744;DHT22;5929;51.906;7.674;2023-04-10T04:17:18;5.90;99.90
11744;DHT22;5929;51.906;7.674;2023-04-10T04:19:45;5.80;99.90
11744;DHT22;5929;51.906;7.674;2023-04-10T04:22:12;5.80;99.90
11744;DHT22;5929;51.906;7.674;2023-04-10T04:24:38;5.70;99.90
11744;DHT22;5929;51.906;7.674;2023-04-10T04:27:05;5.70;99.90
11744;DHT22;5929;51.906;7.674;2023-04-10T04:29:32;5.80;99.90
11744;DHT22;5929;51.906;7.674;2023-04-10T04:31:59;5.80;99.90
11744;DHT22;5929;51.906;7.674;2023-04-10T04:34:27;5.80;99.90
11744;DHT22;5929;51.906;7.674;2023-04-10T04:36:54;5.80;99.90
11744;DHT22;5929;51.906;7.674;2023-04-10T04:39:20;5.80;99.90
11744;DHT22;5929;51.906;7.674;2023-04-10T04:41:47;5.80;99.90
11744;DHT22;5929;51.906;7.674;2023-04-10T04:44:15;5.70;99.90
11744;DHT22;5929;51.906;7.674;2023-04-10T04:46:41;5.70;99.90
11744;DHT22;5929;51.906;7.674;2023-04-10T04:49:08;5.70;99.90
11744;DHT22;5929;51.906;7.674;2023-04-10T04:51:36;5.70;99.90
11744;DHT22;5929;51.906;7.674;2023-04-10T04:54:03;5.80;99.90
11744;DHT22;5929;51.906;7.674;2023-04-10T04:56:30;5.80;99.90
11744;DHT22;5929;51.906;7.674;2023-04-10T04:58:59;5.80;99.90
11744;DHT22;5929;51.906;7.674;2023-04-10T05:01:26;5.80;99.90
11744;DHT22;5929;51.906;7.674;2023-04-10T05:03:53;5.80;99.90
11744;DHT22;5929;51.906;7.674;2023-04-10T05:06:19;5.80;99.90
11744;DHT22;5929;51.906;7.674;2023-04-10T05:08:48;5.90;99.90
11744;DHT22;5929;51.906;7.674;2023-04-10T05:11:14;5.80;99.90
11744;DHT22;5929;51.906;7.674;2023-04-10T05:13:41;5.90;99.90
11744;DHT22;5929;51.906;7.674;2023-04-10T05:16:08;5.90;99.90
11744;DHT22;5929;51.906;7.674;2023-04-10T05:18:35;5.90;99.90
11744;DHT22;5929;51.906;7.674;2023-04-10T05:21:02;5.90;99.90
11744;DHT22;5929;51.906;7.674;2023-04-10T05:23:29;5.90;99.90
11744;DHT22;5929;51.906;7.674;2023-04-10T05:25:57;6.00;99.90
11744;DHT22;5929;51.906;7.674;2023-04-10T05:28:24;6.00;99.90
11744;DHT22;5929;51.906;7.674;2023-04-10T05:30:50;6.00;99.90
11744;DHT22;5929;51.906;7.674;2023-04-10T05:33:20;6.00;99.90
11744;DHT22;5929;51.906;7.674;2023-04-10T05:35:46;6.00;99.90
11744;DHT22;5929;51.906;7.674;2023-04-10T05:38:13;6.10;99.90
11744;DHT22;5929;51.906;7.674;2023-04-10T05:40:43;6.10;99.90
11744;DHT22;5929;51.906;7.674;2023-04-10T05:43:12;6.10;99.90
11744;DHT22;5929;51.906;7.674;2023-04-10T05:45:39;6.10;99.90
11744;DHT22;5929;51.906;7.674;2023-04-10T05:48:09;6.20;99.90
11744;DHT22;5929;51.906;7.674;2023-04-10T05:50:35;6.20;99.90
11744;DHT22;5929;51.906;7.674;2023-04-10T05:53:02;6.30;99.90
11744;DHT22;5929;51.906;7.674;2023-04-10T05:55:30;6.30;99.90
11744;DHT22;5929;51.906;7.674;2023-04-10T05:57:57;6.30;99.90
11744;DHT22;5929;51.906;7.674;2023-04-10T06:00:25;6.30;99.90
11744;DHT22;5929;51.906;7.674;2023-04-10T06:02:52;6.30;99.90
11744;DHT22;5929;51.906;7.674;2023-04-10T06:05:19;6.40;99.90
11744;DHT22;5929;51.906;7.674;2023-04-10T06:07:46;6.40;99.90
11744;DHT22;5929;51.906;7.674;2023-04-10T06:10:12;6.50;99.90
11744;DHT22;5929;51.906;7.674;2023-04-10T06:12:39;6.50;99.90
11744;DHT22;5929;51.906;7.674;2023-04-10T06:15:07;6.50;99.90
11744;DHT22;5929;51.906;7.674;2023-04-10T06:17:40;6.50;99.90
11744;DHT22;5929;51.906;7.674;2023-04-10T06:20:08;6.50;99.90
11744;DHT22;5929;51.906;7.674;2023-04-10T06:22:35;6.50;99.90
11744;DHT22;5929;51.906;7.674;2023-04-10T06:25:02;6.60;99.90
11744;DHT22;5929;51.906;7.674;2023-04-10T06:27:30;6.60;99.90
11744;DHT22;5929;51.906;7.674;2023-04-10T06:29:56;6.60;99.90
11744;DHT22;5929;51.906;7.674;2023-04-10T06:32:25;6.70;99.90
11744;DHT22;5929;51.906;7.674;2023-04-10T06:34:56;6.70;99.90
11744;DHT22;5929;51.906;7.674;2023-04-10T06:37:26;6.80;99.90
11744;DHT22;5929;51.906;7.674;2023-04-10T06:40:01;7.00;99.90
11744;DHT22;5929;51.906;7.674;2023-04-10T06:42:28;7.10;99.90
11744;DHT22;5929;51.906;7.674;2023-04-10T06:44:54;7.20;99.90
11744;DHT22;5929;51.906;7.674;2023-04-10T06:47:21;7.40;99.90
11744;DHT22;5929;51.906;7.674;2023-04-10T06:49:48;7.50;99.90
11744;DHT22;5929;51.906;7.674;2023-04-10T06:52:17;7.70;99.90
11744;DHT22;5929;51.906;7.674;2023-04-10T06:54:44;7.80;99.90
11744;DHT22;5929;51.906;7.674;2023-04-10T06:57:11;8.00;99.90
11744;DHT22;5929;51.906;7.674;2023-04-10T06:59:37;8.20;99.90
11744;DHT22;5929;51.906;7.674;2023-04-10T07:02:04;8.30;99.90
11744;DHT22;5929;51.906;7.674;2023-04-10T07:04:31;8.60;99.90
11744;DHT22;5929;51.906;7.674;2023-04-10T07:06:58;8.70;99.90
11744;DHT22;5929;51.906;7.674;2023-04-10T07:09:29;9.00;99.80
11744;DHT22;5929;51.906;7.674;2023-04-10T07:11:58;9.10;99.70
11744;DHT22;5929;51.906;7.674;2023-04-10T07:14:25;9.30;99.10
11744;DHT22;5929;51.906;7.674;2023-04-10T07:16:52;9.50;98.70
11744;DHT22;5929;51.906;7.674;2023-04-10T07:19:19;9.70;98.80
11744;DHT22;5929;51.906;7.674;2023-04-10T07:21:46;9.80;98.10
11744;DHT22;5929;51.906;7.674;2023-04-10T07:24:14;10.10;96.50
11744;DHT22;5929;51.906;7.674;2023-04-10T07:26:43;10.30;96.50
11744;DHT22;5929;51.906;7.674;2023-04-10T07:29:10;10.40;96.60
11744;DHT22;5929;51.906;7.674;2023-04-10T07:31:37;10.70;95.80
11744;DHT22;5929;51.906;7.674;2023-04-10T07:34:04;10.80;95.60
11744;DHT22;5929;51.906;7.674;2023-04-10T07:36:30;11.00;95.50
11744;DHT22;5929;51.906;7.674;2023-04-10T07:38:57;11.00;95.50
11744;DHT22;5929;51.906;7.674;2023-04-10T07:41:24;11.20;95.10
11744;DHT22;5929;51.906;7.674;2023-04-10T07:43:52;11.30;94.70
11744;DHT22;5929;51.906;7.674;2023-04-10T07:46:19;11.40;93.90
11744;DHT22;5929;51.906;7.674;2023-04-10T07:48:46;11.40;94.40
11744;DHT22;5929;51.906;7.674;2023-04-10T07:51:14;11.50;93.80
11744;DHT22;5929;51.906;7.674;2023-04-10T07:53:40;11.50;93.60
11744;DHT22;5929;51.906;7.674;2023-04-10T07:56:14;11.60;93.50
11744;DHT22;5929;51.906;7.674;2023-04-10T07:58:41;11.70;93.70
11744;DHT22;5929;51.906;7.674;2023-04-10T08:01:09;11.80;93.70
11744;DHT22;5929;51.906;7.674;2023-04-10T08:03:37;11.90;93.90
11744;DHT22;5929;51.906;7.674;2023-04-10T08:06:05;12.00;93.60
11744;DHT22;5929;51.906;7.674;2023-04-10T08:08:34;12.10;92.50
11744;DHT22;5929;51.906;7.674;2023-04-10T08:11:01;12.10;93.20
11744;DHT22;5929;51.906;7.674;2023-04-10T08:13:28;12.10;92.60
11744;DHT22;5929;51.906;7.674;2023-04-10T08:15:54;12.10;93.10
11744;DHT22;5929;51.906;7.674;2023-04-10T08:18:23;12.20;92.60
11744;DHT22;5929;51.906;7.674;2023-04-10T08:20:50;12.30;91.70
11744;DHT22;5929;51.906;7.674;2023-04-10T08:23:16;12.40;92.30
11744;DHT22;5929;51.906;7.674;2023-04-10T08:25:43;12.50;91.90
11744;DHT22;5929;51.906;7.674;2023-04-10T08:28:10;12.50;92.10
11744;DHT22;5929;51.906;7.674;2023-04-10T08:30:37;12.50;91.10
11744;DHT22;5929;51.906;7.674;2023-04-10T08:33:04;12.50;91.10
11744;DHT22;5929;51.906;7.674;2023-04-10T08:35:32;12.50;91.20
11744;DHT22;5929;51.906;7.674;2023-04-10T08:37:59;12.50;91.40
11744;DHT22;5929;51.906;7.674;2023-04-10T08:40:28;12.50;91.60
11744;DHT22;5929;51.906;7.674;2023-04-10T08:42:55;12.40;91.50
11744;DHT22;5929;51.906;7.674;2023-04-10T08:45:21;12.40;91.50
11744;DHT22;5929;51.906;7.674;2023-04-10T08:47:49;12.30;91.80
11744;DHT22;5929;51.906;7.674;2023-04-10T08:50:17;12.30;91.30
11744;DHT22;5929;51.906;7.674;2023-04-10T08:52:50;12.40;91.90
11744;DHT22;5929;51.906;7.674;2023-04-10T08:55:18;12.40;92.00
11744;DHT22;5929;51.906;7.674;2023-04-10T08:57:46;12.50;92.20
11744;DHT22;5929;51.906;7.674;2023-04-10T09:00:13;12.60;91.90
11744;DHT22;5929;51.906;7.674;2023-04-10T09:02:41;12.80;91.80
11744;DHT22;5929;51.906;7.674;2023-04-10T09:05:10;12.90;91.70
11744;DHT22;5929;51.906;7.674;2023-04-10T09:07:37;13.00;91.60
11744;DHT22;5929;51.906;7.674;2023-04-10T09:10:07;13.20;91.90
11744;DHT22;5929;51.906;7.674;2023-04-10T09:12:44;13.40;91.20
11744;DHT22;5929;51.906;7.674;2023-04-10T09:15:11;13.50;92.20
11744;DHT22;5929;51.906;7.674;2023-04-10T09:17:54;13.70;91.70
11744;DHT22;5929;51.906;7.674;2023-04-10T09:20:24;13.90;91.00
11744;DHT22;5929;51.906;7.674;2023-04-10T09:22:52;14.00;89.50
11744;DHT22;5929;51.906;7.674;2023-04-10T09:25:34;14.30;89.20
11744;DHT22;5929;51.906;7.674;2023-04-10T09:28:02;14.60;88.50
11744;DHT22;5929;51.906;7.674;2023-04-10T09:30:33;14.70;86.10
11744;DHT22;5929;51.906;7.674;2023-04-10T09:33:11;14.80;86.90
11744;DHT22;5929;51.906;7.674;2023-04-10T09:35:46;15.00;85.80
11744;DHT22;5929;51.906;7.674;2023-04-10T09:38:14;15.20;82.70
11744;DHT22;5929;51.906;7.674;2023-04-10T09:40:43;15.30;81.90
11744;DHT22;5929;51.906;7.674;2023-04-10T09:43:21;15.40;78.90
11744;DHT22;5929;51.906;7.674;2023-04-10T09:45:49;15.50;80.90
11744;DHT22;5929;51.906;7.674;2023-04-10T09:48:17;15.60;80.20
11744;DHT22;5929;51.906;7.674;2023-04-10T09:50:44;15.70;78.70
11744;DHT22;5929;51.906;7.674;2023-04-10T09:53:12;15.80;78.00
11744;DHT22;5929;51.906;7.674;2023-04-10T09:55:41;15.80;77.70
11744;DHT22;5929;51.906;7.674;2023-04-10T09:58:09;15.80;80.30
11744;DHT22;5929;51.906;7.674;2023-04-10T10:00:40;15.90;78.00
11744;DHT22;5929;51.906;7.674;2023-04-10T10:03:08;16.00;78.10
11744;DHT22;5929;51.906;7.674;2023-04-10T10:05:37;16.10;78.00
11744;DHT22;5929;51.906;7.674;2023-04-10T10:08:05;16.20;77.30
11744;DHT22;5929;51.906;7.674;2023-04-10T10:10:32;16.20;77.80
11744;DHT22;5929;51.906;7.674;2023-04-10T10:13:01;16.20;77.10
11744;DHT22;5929;51.906;7.674;2023-04-10T10:15:35;16.30;76.60
11744;DHT22;5929;51.906;7.674;2023-04-10T10:18:21;16.50;77.20
11744;DHT22;5929;51.906;7.674;2023-04-10T10:20:52;16.60;77.80
11744;DHT22;5929;51.906;7.674;2023-04-10T10:23:19;16.70;77.40
11744;DHT22;5929;51.906;7.674;2023-04-10T10:25:48;16.80;76.20
11744;DHT22;5929;51.906;7.674;2023-04-10T10:28:15;16.80;75.30
11744;DHT22;5929;51.906;7.674;2023-04-10T10:30:46;16.80;74.40
11744;DHT22;5929;51.906;7.674;2023-04-10T10:33:13;16.90;74.60
11744;DHT22;5929;51.906;7.674;2023-04-10T10:35:40;16.90;75.50
11744;DHT22;5929;51.906;7.674;2023-04-10T10:38:07;16.80;75.40
11744;DHT22;5929;51.906;7.674;2023-04-10T10:40:40;16.80;75.90
11744;DHT22;5929;51.906;7.674;2023-04-10T10:43:15;16.80;75.20
11744;DHT22;5929;51.906;7.674;2023-04-10T10:45:51;17.00;74.30
11744;DHT22;5929;51.906;7.674;2023-04-10T10:48:20;17.10;73.70
11744;DHT22;5929;51.906;7.674;2023-04-10T10:50:54;17.10;73.20
11744;DHT22;5929;51.906;7.674;2023-04-10T10:53:36;17.30;75.90
11744;DHT22;5929;51.906;7.674;2023-04-10T10:56:35;17.40;74.10
11744;DHT22;5929;51.906;7.674;2023-04-10T10:59:02;17.40;72.50
11744;DHT22;5929;51.906;7.674;2023-04-10T11:01:33;17.30;72.90
11744;DHT22;5929;51.906;7.674;2023-04-10T11:04:00;17.20;73.50
11744;DHT22;5929;51.906;7.674;2023-04-10T11:06:50;17.30;74.00
11744;DHT22;5929;51.906;7.674;2023-04-10T11:09:44;17.40;74.00
11744;DHT22;5929;51.906;7.674;2023-04-10T11:12:12;17.50;71.40
11744;DHT22;5929;51.906;7.674;2023-04-10T11:14:40;17.60;71.20
11744;DHT22;5929;51.906;7.674;2023-04-10T11:17:09;17.80;70.90
11744;DHT22;5929;51.906;7.674;2023-04-10T11:19:55;18.00;71.10
11744;DHT22;5929;51.906;7.674;2023-04-10T11:22:26;18.00;71.40
11744;DHT22;5929;51.906;7.674;2023-04-10T11:24:58;17.90;73.00
11744;DHT22;5929;51.906;7.674;2023-04-10T11:27:43;18.00;72.10
11744;DHT22;5929;51.906;7.674;2023-04-10T11:30:29;18.10;72.70
11744;DHT22;5929;51.906;7.674;2023-04-10T11:32:58;18.40;71.40
11744;DHT22;5929;51.906;7.674;2023-04-10T11:35:26;18.50;70.30
11744;DHT22;5929;51.906;7.674;2023-04-10T11:38:11;18.80;72.70
11744;DHT22;5929;51.906;7.674;2023-04-10T11:41:01;19.50;68.80
11744;DHT22;5929;51.906;7.674;2023-04-10T11:43:29;19.80;67.60
11744;DHT22;5929;51.906;7.674;2023-04-10T11:46:03;20.10;67.30
11744;DHT22;5929;51.906;7.674;2023-04-10T11:48:33;20.30;68.00
11744;DHT22;5929;51.906;7.674;2023-04-10T11:51:08;20.20;68.10
11744;DHT22;5929;51.906;7.674;2023-04-10T11:53:36;20.60;66.00
11744;DHT22;5929;51.906;7.674;2023-04-10T11:56:03;20.50;66.30
11744;DHT22;5929;51.906;7.674;2023-04-10T11:58:32;20.50;68.50
11744;DHT22;5929;51.906;7.674;2023-04-10T12:01:00;20.50;67.50
11744;DHT22;5929;51.906;7.674;2023-04-10T12:03:36;20.60;66.00
11744;DHT22;5929;51.906;7.674;2023-04-10T12:06:06;20.60;66.10
11744;DHT22;5929;51.906;7.674;2023-04-10T12:08:33;20.60;64.90
11744;DHT22;5929;51.906;7.674;2023-04-10T12:11:00;21.10;64.40
11744;DHT22;5929;51.906;7.674;2023-04-10T12:13:28;21.20;65.50
11744;DHT22;5929;51.906;7.674;2023-04-10T12:15:57;21.20;64.40
11744;DHT22;5929;51.906;7.674;2023-04-10T12:18:25;21.20;63.80
11744;DHT22;5929;51.906;7.674;2023-04-10T12:20:54;21.20;64.70
11744;DHT22;5929;51.906;7.674;2023-04-10T12:23:22;21.10;64.10
11744;DHT22;5929;51.906;7.674;2023-04-10T12:25:49;21.20;63.80
11744;DHT22;5929;51.906;7.674;2023-04-10T12:28:17;20.90;60.90
11744;DHT22;5929;51.906;7.674;2023-04-10T12:30:46;21.00;61.80
11744;DHT22;5929;51.906;7.674;2023-04-10T12:33:13;21.00;63.50
11744;DHT22;5929;51.906;7.674;2023-04-10T12:35:41;21.50;62.90
11744;DHT22;5929;51.906;7.674;2023-04-10T12:38:09;21.50;64.60
11744;DHT22;5929;51.906;7.674;2023-04-10T12:40:36;22.00;61.90
11744;DHT22;5929;51.906;7.674;2023-04-10T12:43:05;21.80;61.70
11744;DHT22;5929;51.906;7.674;2023-04-10T12:45:41;21.80;62.70
11744;DHT22;5929;51.906;7.674;2023-04-10T12:48:08;22.50;60.20
11744;DHT22;5929;51.906;7.674;2023-04-10T12:50:45;22.50;62.10
11744;DHT22;5929;51.906;7.674;2023-04-10T12:53:14;22.60;60.90
11744;DHT22;5929;51.906;7.674;2023-04-10T12:55:40;22.90;61.90
11744;DHT22;5929;51.906;7.674;2023-04-10T12:58:17;23.00;60.40
11744;DHT22;5929;51.906;7.674;2023-04-10T13:00:45;22.90;61.20
11744;DHT22;5929;51.906;7.674;2023-04-10T13:03:12;23.00;61.30
11744;DHT22;5929;51.906;7.674;2023-04-10T13:05:39;22.70;58.70
11744;DHT22;5929;51.906;7.674;2023-04-10T13:08:06;22.50;59.00
11744;DHT22;5929;51.906;7.674;2023-04-10T13:10:35;22.70;58.80
11744;DHT22;5929;51.906;7.674;2023-04-10T13:13:03;22.50;59.10
11744;DHT22;5929;51.906;7.674;2023-04-10T13:15:31;22.60;59.60
11744;DHT22;5929;51.906;7.674;2023-04-10T13:17:59;22.50;59.70
11744;DHT22;5929;51.906;7.674;2023-04-10T13:20:26;22.40;60.70
11744;DHT22;5929;51.906;7.674;2023-04-10T13:22:53;22.60;59.20
11744;DHT22;5929;51.906;7.674;2023-04-10T13:25:19;22.90;59.50
11744;DHT22;5929;51.906;7.674;2023-04-10T13:27:48;23.50;58.60
11744;DHT22;5929;51.906;7.674;2023-04-10T13:30:15;23.30;58.40
11744;DHT22;5929;51.906;7.674;2023-04-10T13:32:42;22.90;57.60
11744;DHT22;5929;51.906;7.674;2023-04-10T13:35:08;22.80;55.70
11744;DHT22;5929;51.906;7.674;2023-04-10T13:37:35;22.70;54.10
11744;DHT22;5929;51.906;7.674;2023-04-10T13:40:02;22.70;55.30
11744;DHT22;5929;51.906;7.674;2023-04-10T13:42:29;22.50;55.60
11744;DHT22;5929;51.906;7.674;2023-04-10T13:44:57;22.50;54.30
11744;DHT22;5929;51.906;7.674;2023-04-10T13:47:24;22.90;57.30
11744;DHT22;5929;51.906;7.674;2023-04-10T13:49:51;23.50;54.00
11744;DHT22;5929;51.906;7.674;2023-04-10T13:52:18;23.90;52.70
11744;DHT22;5929;51.906;7.674;2023-04-10T13:54:45;24.10;51.90
11744;DHT22;5929;51.906;7.674;2023-04-10T13:57:12;24.20;51.40
11744;DHT22;5929;51.906;7.674;2023-04-10T13:59:38;23.80;52.10
11744;DHT22;5929;51.906;7.674;2023-04-10T14:02:07;23.20;49.80
11744;DHT22;5929;51.906;7.674;2023-04-10T14:04:34;22.30;51.40
11744;DHT22;5929;51.906;7.674;2023-04-10T14:07:01;22.10;53.10
11744;DHT22;5929;51.906;7.674;2023-04-10T14:09:28;21.90;52.10
11744;DHT22;5929;51.906;7.674;2023-04-10T14:11:55;21.40;52.10
11744;DHT22;5929;51.906;7.674;2023-04-10T14:14:22;21.30;51.00
11744;DHT22;5929;51.906;7.674;2023-04-10T14:16:49;21.00;52.10
11744;DHT22;5929;51.906;7.674;2023-04-10T14:19:17;20.80;51.70
11744;DHT22;5929;51.906;7.674;2023-04-10T14:21:46;20.50;52.40
11744;DHT22;5929;51.906;7.674;2023-04-10T14:24:13;20.40;54.40
11744;DHT22;5929;51.906;7.674;2023-04-10T14:26:40;20.20;52.50
11744;DHT22;5929;51.906;7.674;2023-04-10T14:29:07;20.00;52.60
11744;DHT22;5929;51.906;7.674;2023-04-10T14:31:34;19.70;52.90
11744;DHT22;5929;51.906;7.674;2023-04-10T14:34:01;19.40;53.20
11744;DHT22;5929;51.906;7.674;2023-04-10T14:36:29;19.30;52.30
11744;DHT22;5929;51.906;7.674;2023-04-10T14:38:56;19.20;52.80
11744;DHT22;5929;51.906;7.674;2023-04-10T14:41:23;19.00;52.80
11744;DHT22;5929;51.906;7.674;2023-04-10T14:43:49;18.80;52.50
11744;DHT22;5929;51.906;7.674;2023-04-10T14:46:16;18.70;53.70
11744;DHT22;5929;51.906;7.674;2023-04-10T14:48:43;18.70;53.20
11744;DHT22;5929;51.906;7.674;2023-04-10T14:51:10;18.60;55.10
11744;DHT22;5929;51.906;7.674;2023-04-10T14:53:38;18.50;53.80
11744;DHT22;5929;51.906;7.674;2023-04-10T14:56:09;18.40;53.70
11744;DHT22;5929;51.906;7.674;2023-04-10T14:58:36;18.40;53.60
11744;DHT22;5929;51.906;7.674;2023-04-10T15:01:07;18.20;54.80
11744;DHT22;5929;51.906;7.674;2023-04-10T15:03:34;18.20;54.10
11744;DHT22;5929;51.906;7.674;2023-04-10T15:06:01;18.10;54.40
11744;DHT22;5929;51.906;7.674;2023-04-10T15:08:28;18.00;54.30
11744;DHT22;5929;51.906;7.674;2023-04-10T15:10:58;18.00;54.90
11744;DHT22;5929;51.906;7.674;2023-04-10T15:13:26;17.90;55.00
11744;DHT22;5929;51.906;7.674;2023-04-10T15:15:53;17.90;55.20
11744;DHT22;5929;51.906;7.674;2023-04-10T15:18:20;17.80;55.50
11744;DHT22;5929;51.906;7.674;2023-04-10T15:20:47;17.90;56.10
11744;DHT22;5929;51.906;7.674;2023-04-10T15:23:14;17.80;56.00
11744;DHT22;5929;51.906;7.674;2023-04-10T15:25:41;17.90;56.60
11744;DHT22;5929;51.906;7.674;2023-04-10T15:28:09;17.80;56.40
11744;DHT22;5929;51.906;7.674;2023-04-10T15:30:36;17.70;57.20
11744;DHT22;5929;51.906;7.674;2023-04-10T15:33:02;17.60;57.10
11744;DHT22;5929;51.906;7.674;2023-04-10T15:35:29;17.50;57.10
11744;DHT22;5929;51.906;7.674;2023-04-10T15:38:01;17.50;57.40
11744;DHT22;5929;51.906;7.674;2023-04-10T15:40:27;17.50;58.10
11744;DHT22;5929;51.906;7.674;2023-04-10T15:42:54;17.40;58.60
11744;DHT22;5929;51.906;7.674;2023-04-10T15:45:22;17.30;58.30
11744;DHT22;5929;51.906;7.674;2023-04-10T15:47:49;17.30;58.50
11744;DHT22;5929;51.906;7.674;2023-04-10T15:50:16;17.20;59.20
11744;DHT22;5929;51.906;7.674;2023-04-10T15:52:43;17.20;59.90
11744;DHT22;5929;51.906;7.674;2023-04-10T15:55:09;17.20;59.60
11744;DHT22;5929;51.906;7.674;2023-04-10T15:57:36;17.20;60.60
11744;DHT22;5929;51.906;7.674;2023-04-10T16:00:04;17.20;59.90
11744;DHT22;5929;51.906;7.674;2023-04-10T16:02:32;17.20;60.10
11744;DHT22;5929;51.906;7.674;2023-04-10T16:04:59;17.30;60.20